Manor, Canada
Current Conditions -  °F | °C
As of 3:00 AM on Saturday 22 Nov 2014 (Local Time) from CYEN Reporting Station
Clear Clear  
Wind Chill: 16°   Ceiling: Unl
Heat Index: 23°   Visibility: 15mi
Dew Point: 21°   Wind: 6mph
Humidity: 93%   Direction: 210°SSW
Pressure: 29.55"   Gusts: NA
Location:  49.6°N, 102.08°W
Report Text: CYEN 220900Z 21005KT 15SM SKC M05/M06 A2955 RMK SLP031
Loading
Personal Weather Stations






























Interactive Weather Map New forecast layout! Learn more

10-Day Weather Forecast

Advertisements
Track Severe Weather on mobile